createdAt,value
2018-07-03T00:00:43.400Z,13.30
2018-07-03T00:03:12.859Z,13.31
2018-07-03T00:05:42.481Z,13.28
2018-07-03T00:08:11.925Z,13.26
2018-07-03T00:10:40.806Z,13.22
2018-07-03T00:13:09.418Z,13.25
2018-07-03T00:15:38.795Z,13.21
2018-07-03T00:18:07.586Z,13.15
2018-07-03T00:20:36.148Z,13.13
2018-07-03T00:23:05.205Z,13.13
2018-07-03T00:25:34.742Z,13.04
2018-07-03T00:28:03.384Z,13.01
2018-07-03T00:30:32.818Z,12.96
2018-07-03T00:33:01.435Z,12.85
2018-07-03T00:35:30.267Z,12.82
2018-07-03T00:37:59.128Z,12.78
2018-07-03T00:40:28.064Z,12.77
2018-07-03T00:42:56.715Z,12.70
2018-07-03T00:45:25.424Z,12.69
2018-07-03T00:47:54.092Z,12.86
2018-07-03T00:50:22.765Z,12.87
2018-07-03T00:52:51.585Z,12.82
2018-07-03T00:55:21.251Z,12.90
2018-07-03T00:57:50.275Z,12.87
2018-07-03T01:00:32.481Z,12.85
2018-07-03T01:03:02.664Z,12.84
2018-07-03T01:05:31.897Z,12.77
2018-07-03T01:08:00.432Z,12.78
2018-07-03T01:10:29.800Z,12.78
2018-07-03T01:12:58.783Z,12.89
2018-07-03T01:15:28.235Z,12.84
2018-07-03T01:17:57.223Z,12.80
2018-07-03T01:20:26.936Z,12.77
2018-07-03T01:22:55.923Z,12.75
2018-07-03T01:25:24.528Z,12.73
2018-07-03T01:27:53.904Z,12.70
2018-07-03T01:30:22.852Z,12.62
2018-07-03T01:32:51.513Z,12.62
2018-07-03T01:35:20.996Z,12.57
2018-07-03T01:37:51.684Z,12.59
2018-07-03T01:40:21.501Z,12.61
2018-07-03T01:42:50.779Z,12.61
2018-07-03T01:45:20.056Z,12.64
2018-07-03T01:47:48.723Z,12.66
2018-07-03T01:53:07.905Z,12.68
2018-07-03T01:55:37.263Z,12.68
2018-07-03T01:58:06.383Z,12.65
2018-07-03T02:00:35.019Z,12.61
2018-07-03T02:03:03.842Z,12.58
2018-07-03T02:05:33.737Z,12.56
2018-07-03T02:08:02.384Z,12.49
2018-07-03T02:10:31.084Z,12.48
2018-07-03T02:12:59.990Z,12.40
2018-07-03T02:15:29.339Z,12.35
2018-07-03T02:17:58.164Z,12.33
2018-07-03T02:20:26.835Z,12.30
2018-07-03T02:22:55.655Z,12.31
2018-07-03T02:25:31.097Z,12.28
2018-07-03T02:27:59.832Z,12.27
2018-07-03T02:30:28.492Z,12.25
2018-07-03T02:32:57.206Z,12.21
2018-07-03T02:35:26.088Z,12.17
2018-07-03T02:37:56.535Z,12.15
2018-07-03T02:40:26.670Z,12.14
2018-07-03T02:42:57.001Z,12.14
2018-07-03T02:45:26.560Z,12.14
2018-07-03T02:47:55.323Z,12.14
2018-07-03T02:50:24.192Z,12.06
2018-07-03T02:52:52.817Z,11.96
2018-07-03T02:55:21.352Z,11.88
2018-07-03T02:57:51.005Z,11.79
2018-07-03T03:00:19.793Z,11.79
2018-07-03T03:05:16.075Z,11.86
2018-07-03T03:07:46.007Z,11.86
2018-07-03T03:10:15.265Z,11.86
2018-07-03T03:12:43.915Z,11.85
2018-07-03T03:15:13.374Z,11.85
2018-07-03T03:17:41.927Z,11.86
2018-07-03T03:20:10.596Z,11.82
2018-07-03T03:22:40.106Z,11.80
2018-07-03T03:25:08.791Z,11.74
2018-07-03T03:27:37.468Z,11.75
2018-07-03T03:30:06.204Z,11.69
2018-07-03T03:32:34.838Z,11.66
2018-07-03T03:35:03.663Z,11.69
2018-07-03T03:37:32.456Z,11.70
2018-07-03T03:40:01.136Z,11.68
2018-07-03T03:42:29.760Z,11.69
2018-07-03T03:44:58.663Z,11.66
2018-07-03T03:47:27.356Z,11.62
2018-07-03T03:49:56.020Z,11.62
2018-07-03T03:52:24.706Z,11.70
2018-07-03T03:54:53.239Z,11.75
2018-07-03T03:57:22.573Z,11.70
2018-07-03T03:59:52.234Z,11.70
2018-07-03T04:02:21.508Z,11.71
2018-07-03T04:04:51.415Z,11.66
2018-07-03T04:07:20.084Z,11.60
2018-07-03T04:09:48.792Z,11.58
2018-07-03T04:12:17.476Z,11.64
2018-07-03T04:14:46.971Z,11.72
2018-07-03T04:17:15.492Z,11.80
2018-07-03T04:19:44.287Z,11.88
2018-07-03T04:22:13.057Z,11.90
2018-07-03T04:24:41.974Z,11.92
2018-07-03T04:27:11.074Z,11.97
2018-07-03T04:29:39.921Z,12.03
2018-07-03T04:32:09.016Z,12.08
2018-07-03T04:34:37.701Z,12.14
2018-07-03T04:37:06.383Z,12.22
2018-07-03T04:39:35.028Z,12.25
2018-07-03T04:42:04.266Z,12.29
2018-07-03T04:44:34.052Z,12.32
2018-07-03T04:47:04.167Z,12.33
2018-07-03T04:49:32.780Z,12.36
2018-07-03T04:52:01.341Z,12.38
2018-07-03T04:54:30.236Z,12.38
2018-07-03T04:56:59.468Z,12.40
2018-07-03T04:59:28.212Z,12.50
2018-07-03T05:01:56.916Z,12.60
2018-07-03T05:04:25.778Z,12.69
2018-07-03T05:06:54.549Z,12.76
2018-07-03T05:09:23.387Z,12.77
2018-07-03T05:11:52.647Z,12.82
2018-07-03T05:14:21.203Z,12.87
2018-07-03T05:16:53.923Z,12.94
2018-07-03T05:19:22.477Z,13.01
2018-07-03T05:21:51.172Z,13.04
2018-07-03T05:24:19.944Z,13.08
2018-07-03T05:26:48.709Z,13.17
2018-07-03T05:29:17.564Z,13.30
2018-07-03T05:31:46.267Z,13.47
2018-07-03T05:34:14.945Z,13.63
2018-07-03T05:36:43.596Z,13.75
2018-07-03T05:39:13.407Z,13.84
2018-07-03T05:41:42.001Z,13.94
2018-07-03T05:44:10.655Z,14.07
2018-07-03T05:46:39.975Z,14.22
2018-07-03T05:49:09.103Z,14.36
2018-07-03T05:51:37.749Z,14.51
2018-07-03T05:54:07.247Z,14.65
2018-07-03T05:56:35.999Z,14.79
2018-07-03T05:59:04.501Z,14.93
2018-07-03T06:01:33.132Z,15.05
2018-07-03T06:04:01.656Z,15.18
2018-07-03T06:06:31.053Z,15.27
2018-07-03T06:08:59.764Z,15.38
2018-07-03T06:11:28.410Z,15.55
2018-07-03T06:13:57.254Z,15.70
2018-07-03T06:16:25.809Z,15.94
2018-07-03T06:18:54.437Z,16.07
2018-07-03T06:21:22.988Z,16.20
2018-07-03T06:23:51.570Z,16.37
2018-07-03T06:26:20.138Z,16.54
2018-07-03T06:28:48.904Z,16.81
2018-07-03T06:31:17.540Z,16.96
2018-07-03T06:33:46.092Z,17.10
2018-07-03T06:36:14.643Z,17.25
2018-07-03T06:38:43.180Z,17.45
2018-07-03T06:41:11.828Z,17.62
2018-07-03T06:43:40.384Z,17.85
2018-07-03T06:46:08.916Z,17.94
2018-07-03T06:48:37.484Z,18.06
2018-07-03T06:51:06.059Z,18.27
2018-07-03T06:53:34.607Z,18.40
2018-07-03T06:56:03.148Z,18.50
2018-07-03T06:58:31.693Z,18.74
2018-07-03T07:01:00.259Z,18.76
2018-07-03T07:03:28.891Z,18.99
2018-07-03T07:05:57.536Z,19.11
2018-07-03T07:08:26.090Z,19.31
2018-07-03T07:10:54.624Z,19.49
2018-07-03T07:13:23.239Z,19.76
2018-07-03T07:15:51.776Z,19.76
2018-07-03T07:18:20.515Z,20.00
2018-07-03T07:20:49.144Z,20.13
2018-07-03T07:23:17.723Z,20.14
2018-07-03T07:25:46.292Z,20.41
2018-07-03T07:28:15.081Z,20.46
2018-07-03T07:30:43.728Z,20.49
2018-07-03T07:33:12.492Z,20.51
2018-07-03T07:35:41.057Z,20.71
2018-07-03T07:38:09.658Z,20.95
2018-07-03T07:40:38.275Z,20.97
2018-07-03T07:43:06.808Z,21.14
2018-07-03T07:45:35.368Z,21.29
2018-07-03T07:48:04.133Z,21.35
2018-07-03T07:50:32.743Z,21.35
2018-07-03T07:53:01.300Z,21.53
2018-07-03T07:55:29.920Z,21.50
2018-07-03T07:57:58.459Z,21.65
2018-07-03T08:00:27.024Z,21.73
2018-07-03T08:02:56.378Z,21.85
2018-07-03T08:05:24.933Z,21.98
2018-07-03T08:07:54.556Z,22.22
2018-07-03T08:10:23.183Z,22.13
2018-07-03T08:12:51.736Z,22.26
2018-07-03T08:15:20.292Z,22.43
2018-07-03T08:17:49.691Z,22.43
2018-07-03T08:20:18.248Z,22.25
2018-07-03T08:22:46.827Z,22.35
2018-07-03T08:25:15.403Z,22.48
2018-07-03T08:27:43.959Z,22.56
2018-07-03T08:30:12.599Z,22.71
2018-07-03T08:32:41.180Z,22.90
2018-07-03T08:35:10.019Z,22.91
2018-07-03T08:37:38.696Z,22.96
2018-07-03T08:40:08.004Z,22.83
2018-07-03T08:42:37.026Z,22.90
2018-07-03T08:45:06.675Z,23.05
2018-07-03T08:47:35.209Z,22.95
2018-07-03T08:50:03.885Z,22.81
2018-07-03T08:52:32.533Z,23.05
2018-07-03T08:55:01.060Z,23.17
2018-07-03T08:57:29.652Z,23.18
2018-07-03T08:59:58.296Z,23.15
2018-07-03T09:02:26.932Z,22.83
2018-07-03T09:04:55.513Z,22.71
2018-07-03T09:07:24.052Z,22.91
2018-07-03T09:09:52.633Z,23.04
2018-07-03T09:12:21.201Z,23.27
2018-07-03T09:14:49.882Z,23.19
2018-07-03T09:17:23.607Z,23.32
2018-07-03T09:19:52.148Z,23.42
2018-07-03T09:22:20.715Z,23.52
2018-07-03T09:24:49.321Z,23.64
2018-07-03T09:27:17.887Z,23.64
2018-07-03T09:29:46.424Z,23.77
2018-07-03T09:32:14.960Z,23.96
2018-07-03T09:34:44.154Z,24.03
2018-07-03T09:37:12.719Z,23.96
2018-07-03T09:39:48.198Z,23.81
2018-07-03T09:42:17.011Z,23.47
2018-07-03T09:44:45.667Z,23.33
2018-07-03T09:47:14.217Z,23.32
2018-07-03T09:49:42.791Z,23.41
2018-07-03T09:52:11.376Z,23.63
2018-07-03T09:54:39.933Z,23.88
2018-07-03T09:57:08.779Z,24.01
2018-07-03T09:59:37.372Z,24.02
2018-07-03T10:02:06.421Z,23.87
2018-07-03T10:04:35.021Z,24.10
2018-07-03T10:07:03.870Z,24.13
2018-07-03T10:09:33.193Z,24.37
2018-07-03T10:12:02.601Z,24.62
2018-07-03T10:14:31.138Z,24.86
2018-07-03T10:16:59.684Z,24.95
2018-07-03T10:19:28.241Z,24.99
2018-07-03T10:21:56.831Z,25.19
2018-07-03T10:24:25.373Z,25.17
2018-07-03T10:26:54.017Z,25.01
2018-07-03T10:29:22.559Z,25.12
2018-07-03T10:31:51.253Z,25.30
2018-07-03T10:34:19.888Z,25.39
2018-07-03T10:36:48.417Z,25.38
2018-07-03T10:39:16.969Z,25.54
2018-07-03T10:41:45.539Z,25.56
2018-07-03T10:44:14.114Z,25.54
2018-07-03T10:46:42.664Z,25.70
2018-07-03T10:49:11.217Z,25.61
2018-07-03T10:51:39.787Z,25.26
2018-07-03T10:54:08.392Z,25.33
2018-07-03T10:56:37.008Z,25.22
2018-07-03T10:59:05.719Z,25.09
2018-07-03T11:01:34.273Z,25.14
2018-07-03T11:04:02.821Z,25.37
2018-07-03T11:06:31.420Z,25.66
2018-07-03T11:08:59.967Z,25.72
2018-07-03T11:11:28.523Z,25.96
2018-07-03T11:13:57.139Z,25.92
2018-07-03T11:16:25.705Z,25.97
2018-07-03T11:18:54.268Z,26.06
2018-07-03T11:21:22.804Z,26.04
2018-07-03T11:23:51.445Z,26.00
2018-07-03T11:26:19.976Z,25.99
2018-07-03T11:28:48.523Z,26.13
2018-07-03T11:31:17.074Z,26.20
2018-07-03T11:33:45.704Z,26.40
2018-07-03T11:36:14.324Z,26.54
2018-07-03T11:38:42.866Z,26.11
2018-07-03T11:41:11.504Z,26.13
2018-07-03T11:43:40.197Z,26.47
2018-07-03T11:46:08.877Z,26.68
2018-07-03T11:48:37.441Z,26.95
2018-07-03T11:51:06.080Z,27.13
2018-07-03T11:53:34.860Z,27.19
2018-07-03T11:56:03.441Z,27.22
2018-07-03T11:58:31.995Z,27.34
2018-07-03T12:01:00.582Z,27.53
2018-07-03T12:03:29.117Z,27.68
2018-07-03T12:05:58.523Z,27.76
2018-07-03T12:08:27.366Z,27.63
2018-07-03T12:10:55.931Z,27.62
2018-07-03T12:13:24.500Z,27.67
2018-07-03T12:15:53.053Z,27.50
2018-07-03T12:18:26.747Z,27.33
2018-07-03T12:20:55.692Z,27.41
2018-07-03T12:23:24.255Z,27.52
2018-07-03T12:25:52.826Z,27.53
2018-07-03T12:28:21.396Z,27.39
2018-07-03T12:30:49.953Z,27.33
2018-07-03T12:33:18.509Z,27.37
2018-07-03T12:35:47.090Z,27.46
2018-07-03T12:38:15.616Z,27.30
2018-07-03T12:40:44.176Z,27.26
2018-07-03T12:43:12.730Z,27.28
2018-07-03T12:45:41.393Z,27.41
2018-07-03T12:48:10.025Z,27.51
2018-07-03T12:50:38.625Z,27.56
2018-07-03T12:53:07.251Z,27.67
2018-07-03T12:55:35.796Z,27.77
2018-07-03T12:58:04.465Z,27.75
2018-07-03T13:00:33.020Z,27.97
2018-07-03T13:03:01.560Z,28.06
2018-07-03T13:05:30.132Z,27.77
2018-07-03T13:07:58.702Z,27.84
2018-07-03T13:10:27.271Z,28.06
2018-07-03T13:12:55.881Z,28.18
2018-07-03T13:15:24.448Z,28.04
2018-07-03T13:17:53.096Z,28.08
2018-07-03T13:20:21.682Z,28.47
2018-07-03T13:22:50.312Z,28.78
2018-07-03T13:25:18.927Z,28.96
2018-07-03T13:27:47.643Z,29.13
2018-07-03T13:30:16.246Z,29.19
2018-07-03T13:32:44.825Z,29.14
2018-07-03T13:35:13.416Z,29.20
2018-07-03T13:37:42.025Z,29.30
2018-07-03T13:40:11.111Z,28.96
2018-07-03T13:42:39.684Z,28.81
2018-07-03T13:45:08.285Z,28.71
2018-07-03T13:47:36.855Z,28.52
2018-07-03T13:50:05.724Z,28.29
2018-07-03T13:52:34.373Z,28.29
2018-07-03T13:55:03.197Z,28.34
2018-07-03T13:57:31.811Z,28.19
2018-07-03T14:00:00.356Z,28.13
2018-07-03T14:02:29.468Z,28.09
2018-07-03T14:04:58.041Z,28.00
2018-07-03T14:07:26.599Z,28.06
2018-07-03T14:09:56.023Z,28.00
2018-07-03T14:12:24.600Z,27.87
2018-07-03T14:14:53.180Z,27.68
2018-07-03T14:17:21.792Z,27.50
2018-07-03T14:19:50.448Z,27.45
2018-07-03T14:22:19.008Z,27.42
2018-07-03T14:24:47.584Z,27.39
2018-07-03T14:27:16.171Z,27.26
2018-07-03T14:29:44.743Z,27.18
2018-07-03T14:32:13.317Z,27.05
2018-07-03T14:34:41.875Z,27.21
2018-07-03T14:37:10.488Z,27.54
2018-07-03T14:39:39.076Z,27.95
2018-07-03T14:42:07.821Z,27.68
2018-07-03T14:44:36.431Z,27.26
2018-07-03T14:47:05.016Z,27.18
2018-07-03T14:49:33.571Z,27.20
2018-07-03T14:52:02.145Z,27.24
2018-07-03T14:54:30.720Z,27.19
2018-07-03T14:56:59.485Z,26.81
2018-07-03T14:59:28.089Z,26.50
2018-07-03T15:01:56.829Z,26.46
2018-07-03T15:04:25.490Z,26.43
2018-07-03T15:06:54.440Z,26.22
2018-07-03T15:09:23.017Z,25.94
2018-07-03T15:11:51.576Z,25.99
2018-07-03T15:14:20.129Z,26.03
2018-07-03T15:16:48.653Z,26.03
2018-07-03T15:19:22.561Z,26.10
2018-07-03T15:21:51.101Z,26.10
2018-07-03T15:24:19.650Z,26.25
2018-07-03T15:26:48.193Z,26.46
2018-07-03T15:29:16.797Z,26.53
2018-07-03T15:31:45.412Z,26.39
2018-07-03T15:34:13.951Z,26.40
2018-07-03T15:36:42.495Z,26.34
2018-07-03T15:39:13.583Z,26.03
2018-07-03T15:41:42.679Z,25.92
2018-07-03T15:44:22.200Z,25.85
2018-07-03T15:46:50.779Z,25.75
2018-07-03T15:49:19.495Z,25.78
2018-07-03T15:51:48.372Z,25.87
2018-07-03T15:54:16.928Z,25.90
2018-07-03T15:56:45.464Z,25.81
2018-07-03T15:59:14.224Z,25.78
2018-07-03T16:01:42.784Z,25.74
2018-07-03T16:05:22.191Z,25.76
2018-07-03T16:08:05.023Z,25.80
2018-07-03T16:10:34.523Z,25.68
2018-07-03T16:13:03.883Z,25.70
2018-07-03T16:15:32.477Z,25.74
2018-07-03T16:18:01.044Z,25.77
2018-07-03T16:20:34.876Z,25.82
2018-07-03T16:23:03.716Z,25.71
2018-07-03T16:25:32.250Z,25.49
2018-07-03T16:28:00.835Z,25.50
2018-07-03T16:30:34.078Z,25.47
2018-07-03T16:33:02.880Z,25.42
2018-07-03T16:35:31.457Z,25.23
2018-07-03T16:38:00.004Z,25.11
2018-07-03T16:40:28.584Z,25.04
2018-07-03T16:42:57.191Z,25.03
2018-07-03T16:45:25.787Z,25.01
2018-07-03T16:47:54.348Z,24.88
2018-07-03T16:50:23.020Z,24.85
2018-07-03T16:52:51.855Z,24.93
2018-07-03T16:55:20.498Z,24.80
2018-07-03T16:57:49.080Z,24.58
2018-07-03T17:00:27.221Z,24.50
2018-07-03T17:02:55.851Z,24.55
2018-07-03T17:05:24.759Z,24.45
2018-07-03T17:07:53.740Z,24.30
2018-07-03T17:10:22.304Z,24.07
2018-07-03T17:12:50.884Z,24.01
2018-07-03T17:15:19.450Z,24.05
2018-07-03T17:17:47.979Z,23.93
2018-07-03T17:20:16.713Z,23.88
2018-07-03T17:22:45.253Z,23.85
2018-07-03T17:25:13.817Z,23.93
2018-07-03T17:27:42.398Z,24.05
2018-07-03T17:30:11.208Z,24.12
2018-07-03T17:32:39.740Z,24.07
2018-07-03T17:35:08.433Z,23.95
2018-07-03T17:37:37.232Z,23.99
2018-07-03T17:40:16.828Z,23.89
2018-07-03T17:42:56.525Z,23.76
2018-07-03T17:45:38.627Z,23.65
2018-07-03T17:48:08.606Z,23.52
2018-07-03T17:50:37.200Z,23.41
2018-07-03T17:53:06.108Z,23.24
2018-07-03T17:55:35.111Z,23.16
2018-07-03T18:00:31.877Z,22.97
2018-07-03T18:03:00.659Z,22.88
2018-07-03T18:05:30.790Z,22.83
2018-07-03T18:07:59.604Z,22.81
2018-07-03T18:10:28.249Z,22.71
2018-07-03T18:12:56.858Z,22.67
2018-07-03T18:15:25.547Z,22.63
2018-07-03T18:17:54.066Z,22.59
2018-07-03T18:20:22.727Z,22.49
2018-07-03T18:22:51.276Z,22.30
2018-07-03T18:25:19.890Z,22.20
2018-07-03T18:27:48.482Z,22.06
2018-07-03T18:30:17.076Z,21.87
2018-07-03T18:32:45.744Z,21.65
2018-07-03T18:35:14.350Z,21.52
2018-07-03T18:37:42.968Z,21.47
2018-07-03T18:40:11.559Z,21.35
2018-07-03T18:42:40.106Z,21.32
2018-07-03T18:45:08.727Z,21.41
2018-07-03T18:47:37.272Z,21.43
2018-07-03T18:50:06.176Z,21.36
2018-07-03T18:52:34.784Z,21.20
2018-07-03T18:55:03.352Z,20.93
2018-07-03T18:57:32.249Z,20.71
2018-07-03T19:00:00.848Z,20.63
2018-07-03T19:02:29.399Z,20.47
2018-07-03T19:04:57.933Z,20.31
2018-07-03T19:07:26.676Z,20.11
2018-07-03T19:09:55.245Z,19.98
2018-07-03T19:12:23.848Z,19.87
2018-07-03T19:14:52.391Z,19.68
2018-07-03T19:17:20.959Z,19.61
2018-07-03T19:19:49.516Z,19.64
2018-07-03T19:22:18.054Z,19.76
2018-07-03T19:24:46.703Z,19.81
2018-07-03T19:27:15.230Z,19.73
2018-07-03T19:29:43.760Z,19.60
2018-07-03T19:32:12.535Z,19.50
2018-07-03T19:34:41.176Z,19.42
2018-07-03T19:37:09.795Z,19.44
2018-07-03T19:39:38.341Z,19.45
2018-07-03T19:42:07.024Z,19.44
2018-07-03T19:44:35.499Z,19.33
2018-07-03T19:47:04.195Z,19.26
2018-07-03T19:49:32.912Z,19.16
2018-07-03T19:52:02.599Z,19.08
2018-07-03T19:54:31.412Z,19.02
2018-07-03T19:57:00.010Z,18.94
2018-07-03T19:59:28.632Z,18.86
2018-07-03T20:01:57.152Z,18.78
2018-07-03T20:04:25.687Z,18.79
2018-07-03T20:06:55.322Z,18.72
2018-07-03T20:09:23.844Z,18.61
2018-07-03T20:11:52.422Z,18.56
2018-07-03T20:14:20.988Z,18.62
2018-07-03T20:16:49.517Z,18.66
2018-07-03T20:19:18.170Z,18.74
2018-07-03T20:21:47.427Z,18.75
2018-07-03T20:24:17.068Z,18.73
2018-07-03T20:26:45.623Z,18.69
2018-07-03T20:29:14.807Z,18.67
2018-07-03T20:31:43.512Z,18.63
2018-07-03T20:34:13.478Z,18.64
2018-07-03T20:36:42.592Z,18.66
2018-07-03T20:39:12.040Z,18.67
2018-07-03T20:41:40.623Z,18.61
2018-07-03T20:44:09.187Z,18.59
2018-07-03T20:46:38.618Z,18.58
2018-07-03T20:49:07.189Z,18.57
2018-07-03T20:51:36.050Z,18.52
2018-07-03T20:54:04.584Z,18.36
2018-07-03T20:56:33.174Z,18.22
2018-07-03T20:59:01.814Z,18.14
2018-07-03T21:01:30.360Z,18.02
2018-07-03T21:03:59.043Z,17.98
2018-07-03T21:06:27.601Z,17.88
2018-07-03T21:08:56.168Z,17.82
2018-07-03T21:11:25.795Z,17.86
2018-07-03T21:13:54.479Z,17.84
2018-07-03T21:16:23.264Z,17.88
2018-07-03T21:18:52.603Z,17.90
2018-07-03T21:21:21.595Z,17.94
2018-07-03T21:23:50.359Z,17.92
2018-07-03T21:26:19.307Z,17.91
2018-07-03T21:28:48.099Z,17.87
2018-07-03T21:31:16.831Z,17.85
2018-07-03T21:33:45.840Z,17.81
2018-07-03T21:36:14.546Z,17.80
2018-07-03T21:38:43.693Z,17.74
2018-07-03T21:41:13.172Z,17.59
2018-07-03T21:43:41.867Z,17.53
2018-07-03T21:46:10.551Z,17.52
2018-07-03T21:48:39.520Z,17.49
2018-07-03T21:51:08.369Z,17.33
2018-07-03T21:53:36.994Z,17.32
2018-07-03T21:56:05.928Z,17.38
2018-07-03T21:58:35.132Z,17.40
2018-07-03T22:01:04.459Z,17.37
2018-07-03T22:03:32.986Z,17.39
2018-07-03T22:06:03.002Z,17.33
2018-07-03T22:08:32.969Z,17.27
2018-07-03T22:11:01.689Z,17.20
2018-07-03T22:13:30.999Z,17.12
2018-07-03T22:15:59.703Z,17.10
2018-07-03T22:18:29.037Z,17.07
2018-07-03T22:20:58.685Z,17.06
2018-07-03T22:23:27.991Z,16.89
2018-07-03T22:25:57.243Z,16.71
2018-07-03T22:28:26.199Z,16.60
2018-07-03T22:30:55.422Z,16.66
2018-07-03T22:33:24.383Z,16.77
2018-07-03T22:35:54.493Z,16.78
2018-07-03T22:38:24.064Z,16.76
2018-07-03T22:40:53.697Z,16.75
2018-07-03T22:43:22.215Z,16.75
2018-07-03T22:45:51.419Z,16.74
2018-07-03T22:51:11.660Z,16.70
2018-07-03T22:53:40.248Z,16.65
2018-07-03T22:56:10.540Z,16.66
2018-07-03T22:58:42.212Z,16.58
2018-07-03T23:01:12.107Z,16.54
2018-07-03T23:03:41.080Z,16.46
2018-07-03T23:06:09.976Z,16.42
2018-07-03T23:08:38.723Z,16.42
2018-07-03T23:11:07.460Z,16.38
2018-07-03T23:13:36.010Z,16.31
2018-07-03T23:16:04.640Z,16.36
2018-07-03T23:18:33.181Z,16.41
2018-07-03T23:21:01.780Z,16.42
2018-07-03T23:23:30.327Z,16.40
2018-07-03T23:25:58.853Z,16.35
2018-07-03T23:28:27.411Z,16.30
2018-07-03T23:30:55.968Z,16.31
2018-07-03T23:33:24.498Z,16.26
2018-07-03T23:35:53.050Z,16.25
2018-07-03T23:38:21.853Z,16.11
2018-07-03T23:40:50.488Z,16.06
2018-07-03T23:43:19.304Z,16.09
2018-07-03T23:45:54.576Z,16.09
2018-07-03T23:48:34.304Z,16.05
2018-07-03T23:51:15.320Z,16.02
2018-07-03T23:53:55.124Z,15.95
2018-07-03T23:56:35.796Z,15.98
2018-07-03T23:59:15.657Z,15.92
